createdAt,value
2023-02-05T00:01:21.530Z,101014.34
2023-02-05T00:03:52.151Z,101007.13
2023-02-05T00:06:22.250Z,101004.34
2023-02-05T00:08:54.277Z,101004.69
2023-02-05T00:11:25.369Z,100998.28
2023-02-05T00:13:56.496Z,101000.25
2023-02-05T00:16:28.475Z,101003.03
2023-02-05T00:18:59.566Z,100991.03
2023-02-05T00:21:30.642Z,100993.84
2023-02-05T00:24:02.938Z,100995.00
2023-02-05T00:26:33.557Z,101001.72
2023-02-05T00:29:03.711Z,101000.06
2023-02-05T00:31:34.495Z,101000.88
2023-02-05T00:34:05.427Z,100995.66
2023-02-05T00:36:36.008Z,101003.16
2023-02-05T00:39:09.654Z,100997.94
2023-02-05T00:41:40.552Z,101008.28
2023-02-05T00:44:18.750Z,100995.78
2023-02-05T00:46:49.928Z,100994.97
2023-02-05T00:49:20.504Z,100999.69
2023-02-05T00:51:50.663Z,101004.13
2023-02-05T00:54:23.462Z,100993.81
2023-02-05T00:56:53.963Z,100993.81
2023-02-05T00:59:24.671Z,100985.97
2023-02-05T01:01:55.229Z,100989.91
2023-02-05T01:04:25.780Z,100980.41
2023-02-05T01:06:56.918Z,100965.31
2023-02-05T01:09:29.310Z,100968.09
2023-02-05T01:12:00.007Z,100968.09
2023-02-05T01:14:29.738Z,100966.13
2023-02-05T01:17:00.305Z,100966.13
2023-02-05T01:19:30.519Z,100965.63
2023-02-05T01:22:01.078Z,100962.03
2023-02-05T01:24:33.592Z,100956.44
2023-02-05T01:27:04.225Z,100954.81
2023-02-05T01:29:34.819Z,100948.38
2023-02-05T01:32:04.888Z,100948.91
2023-02-05T01:34:35.593Z,100943.66
2023-02-05T01:37:06.149Z,100950.03
2023-02-05T01:39:39.872Z,100946.09
2023-02-05T01:42:23.173Z,100943.81
2023-02-05T01:45:51.261Z,100939.72
2023-02-05T01:48:32.735Z,100934.44
2023-02-05T01:51:08.909Z,100936.09
2023-02-05T01:53:41.045Z,100931.38
2023-02-05T01:56:19.904Z,100930.22
2023-02-05T01:58:57.347Z,100951.03
2023-02-05T02:01:30.420Z,100935.97
2023-02-05T02:04:05.584Z,100919.22
2023-02-05T02:06:38.698Z,100914.47
2023-02-05T02:09:09.982Z,100908.91
2023-02-05T02:11:45.509Z,100909.72
2023-02-05T02:14:17.769Z,100906.44
2023-02-05T02:16:49.588Z,100902.81
2023-02-05T02:19:40.554Z,100908.38
2023-02-05T02:22:56.669Z,100901.50
2023-02-05T02:26:05.137Z,100901.00
2023-02-05T02:28:45.863Z,100899.34
2023-02-05T02:31:26.206Z,100894.13
2023-02-05T02:34:04.844Z,100905.28
2023-02-05T02:36:45.559Z,100897.25
2023-02-05T02:39:24.825Z,100894.47
2023-02-05T02:42:00.106Z,100898.38
2023-02-05T02:44:40.459Z,100888.03
2023-02-05T02:47:16.828Z,100892.81
2023-02-05T02:49:56.317Z,100901.16
2023-02-05T02:52:29.239Z,100896.41
2023-02-05T02:55:06.416Z,100891.16
2023-02-05T02:57:40.200Z,100888.03
2023-02-05T03:00:20.935Z,100885.25
2023-02-05T03:02:56.345Z,100876.09
2023-02-05T03:05:29.922Z,100891.16
2023-02-05T03:08:10.724Z,100887.56
2023-02-05T03:10:47.265Z,100884.59
2023-02-05T03:13:18.511Z,100882.94
2023-02-05T03:15:51.582Z,100879.34
2023-02-05T03:18:23.052Z,100879.34
2023-02-05T03:20:59.916Z,100876.91
2023-02-05T03:23:31.818Z,100879.69
2023-02-05T03:26:02.782Z,100883.63
2023-02-05T03:28:33.484Z,100874.41
2023-02-05T03:31:16.726Z,100874.75
2023-02-05T03:34:01.402Z,100873.75
2023-02-05T03:36:52.172Z,100864.91
2023-02-05T03:39:36.882Z,100864.41
2023-02-05T03:42:27.833Z,100866.34
2023-02-05T03:45:22.246Z,100865.88
2023-02-05T03:48:24.456Z,100876.19
2023-02-05T03:51:09.656Z,100870.63
2023-02-05T03:53:55.525Z,100859.47
2023-02-05T03:56:32.400Z,100855.88
2023-02-05T03:59:06.008Z,100863.41
2023-02-05T04:01:37.935Z,100855.38
2023-02-05T04:04:10.462Z,100861.28
2023-02-05T04:06:41.143Z,100871.59
2023-02-05T04:09:14.440Z,100863.56
2023-02-05T04:11:45.622Z,100877.50
2023-02-05T04:14:16.168Z,100874.22
2023-02-05T04:16:46.857Z,100865.00
2023-02-05T04:19:18.825Z,100860.91
2023-02-05T04:21:49.334Z,100873.53
2023-02-05T04:24:19.980Z,100868.31
2023-02-05T04:26:51.745Z,100874.69
2023-02-05T04:29:22.343Z,100873.88
2023-02-05T04:31:52.567Z,100880.25
2023-02-05T04:34:25.232Z,100881.09
2023-02-05T04:36:56.486Z,100880.25
2023-02-05T04:39:27.053Z,100880.59
2023-02-05T04:41:57.853Z,100873.88
2023-02-05T04:44:46.057Z,100880.25
2023-02-05T04:47:16.647Z,100876.97
2023-02-05T04:49:49.370Z,100874.69
2023-02-05T04:52:19.349Z,100884.69
2023-02-05T04:54:49.976Z,100884.34
2023-02-05T04:57:20.660Z,100887.13
2023-02-05T04:59:51.892Z,100882.41
2023-02-05T05:02:25.257Z,100883.19
2023-02-05T05:05:02.489Z,100882.41
2023-02-05T05:07:34.493Z,100872.41
2023-02-05T05:10:05.065Z,100879.09
2023-02-05T05:12:35.691Z,100876.81
2023-02-05T05:15:08.043Z,100879.63
2023-02-05T05:17:39.466Z,100872.22
2023-02-05T05:20:13.664Z,100883.41
2023-02-05T05:22:43.814Z,100880.81
2023-02-05T05:25:14.261Z,100875.91
2023-02-05T05:27:44.962Z,100881.84
2023-02-05T05:30:17.452Z,100881.03
2023-02-05T05:32:48.546Z,100877.97
2023-02-05T05:35:21.797Z,100873.66
2023-02-05T05:37:53.613Z,100880.72
2023-02-05T05:40:40.837Z,100884.28
2023-02-05T05:43:32.078Z,100882.00
2023-02-05T05:46:02.988Z,100886.09
2023-02-05T05:48:33.844Z,100878.53
2023-02-05T05:51:07.607Z,100879.63
2023-02-05T05:53:38.265Z,100876.78
2023-02-05T05:56:09.649Z,100881.63
2023-02-05T05:58:40.666Z,100876.50
2023-02-05T06:01:12.306Z,100872.22
2023-02-05T06:03:43.162Z,100884.19
2023-02-05T06:06:16.245Z,100883.72
2023-02-05T06:08:47.388Z,100872.69
2023-02-05T06:11:17.299Z,100863.75
2023-02-05T06:13:48.354Z,100870.75
2023-02-05T06:16:18.888Z,100867.41
2023-02-05T06:18:49.200Z,100863.53
2023-02-05T06:21:20.808Z,100859.63
2023-02-05T06:23:51.359Z,100848.63
2023-02-05T06:26:22.132Z,100859.78
2023-02-05T06:28:52.610Z,100868.19
2023-02-05T06:31:24.279Z,100868.94
2023-02-05T06:33:55.244Z,100868.03
2023-02-05T06:36:28.013Z,100869.97
2023-02-05T06:38:58.637Z,100878.63
2023-02-05T06:41:29.700Z,100874.03
2023-02-05T06:43:59.791Z,100871.91
2023-02-05T06:46:30.670Z,100867.34
2023-02-05T06:49:01.353Z,100869.88
2023-02-05T06:51:34.228Z,100875.19
2023-02-05T06:54:04.953Z,100872.81
2023-02-05T06:56:36.492Z,100866.88
2023-02-05T06:59:07.103Z,100867.28
2023-02-05T07:01:37.386Z,100861.78
2023-02-05T07:04:08.320Z,100870.03
2023-02-05T07:06:41.088Z,100875.13
2023-02-05T07:09:10.989Z,100868.41
2023-02-05T07:11:41.606Z,100866.31
2023-02-05T07:14:12.286Z,100858.00
2023-02-05T07:16:42.822Z,100859.19
2023-02-05T07:19:14.064Z,100857.81
2023-02-05T07:21:46.461Z,100858.41
2023-02-05T07:24:17.910Z,100850.47
2023-02-05T07:26:48.704Z,100842.03
2023-02-05T07:29:19.320Z,100852.25
2023-02-05T07:31:52.224Z,100853.66
2023-02-05T07:34:23.577Z,100858.16
2023-02-05T07:36:56.296Z,100851.66
2023-02-05T07:39:28.510Z,100848.38
2023-02-05T07:41:59.738Z,100839.84
2023-02-05T07:44:30.478Z,100841.78
2023-02-05T07:47:01.196Z,100837.28
2023-02-05T07:49:31.878Z,100834.78
2023-02-05T07:52:05.942Z,100827.81
2023-02-05T07:54:36.320Z,100820.06
2023-02-05T07:57:07.172Z,100828.06
2023-02-05T07:59:38.436Z,100823.16
2023-02-05T08:02:09.085Z,100823.13
2023-02-05T08:04:39.701Z,100815.03
2023-02-05T08:07:14.095Z,100821.06
2023-02-05T08:09:44.824Z,100824.28
2023-02-05T08:12:14.720Z,100820.63
2023-02-05T08:14:45.545Z,100795.13
2023-02-05T08:17:16.380Z,100791.84
2023-02-05T08:19:46.457Z,100805.09
2023-02-05T08:22:20.732Z,100798.16
2023-02-05T08:24:51.343Z,100788.84
2023-02-05T08:27:25.299Z,100788.38
2023-02-05T08:29:56.275Z,100791.09
2023-02-05T08:32:28.057Z,100782.59
2023-02-05T08:34:59.297Z,100775.69
2023-02-05T08:37:32.740Z,100778.50
2023-02-05T08:40:03.344Z,100777.19
2023-02-05T08:42:34.107Z,100772.31
2023-02-05T08:45:09.259Z,100774.56
2023-02-05T08:47:40.131Z,100777.28
2023-02-05T08:50:11.477Z,100775.97
2023-02-05T08:52:45.124Z,100778.34
2023-02-05T08:55:17.251Z,100760.06
2023-02-05T08:57:49.093Z,100758.41
2023-02-05T09:00:21.447Z,100751.91
2023-02-05T09:02:52.143Z,100753.88
2023-02-05T09:05:22.555Z,100742.91
2023-02-05T09:07:54.408Z,100749.66
2023-02-05T09:10:25.538Z,100737.81
2023-02-05T09:12:56.253Z,100747.38
2023-02-05T09:15:26.943Z,100746.84
2023-02-05T09:17:57.104Z,100742.31
2023-02-05T09:20:27.543Z,100739.34
2023-02-05T09:23:00.180Z,100724.41
2023-02-05T09:25:35.241Z,100723.91
2023-02-05T09:28:09.996Z,100721.00
2023-02-05T09:30:41.876Z,100706.31
2023-02-05T09:33:13.754Z,100696.09
2023-02-05T09:35:45.729Z,100690.75
2023-02-05T09:38:19.379Z,100688.63
2023-02-05T09:41:00.043Z,100681.25
2023-02-05T09:43:53.720Z,100678.69
2023-02-05T09:46:39.630Z,100692.66
2023-02-05T09:49:20.832Z,100681.19
2023-02-05T09:51:59.051Z,100682.22
2023-02-05T09:54:38.146Z,100674.47
2023-02-05T09:57:33.165Z,100663.53
2023-02-05T10:00:03.476Z,100652.53
2023-02-05T10:02:45.570Z,100646.84
2023-02-05T10:05:18.583Z,100641.53
2023-02-05T10:08:06.119Z,100643.47
2023-02-05T10:10:45.987Z,100639.34
2023-02-05T10:13:37.568Z,100620.25
2023-02-05T10:16:40.421Z,100603.16
2023-02-05T10:19:49.475Z,100605.00
2023-02-05T10:22:29.293Z,100602.50
2023-02-05T10:26:02.276Z,100594.28
2023-02-05T10:29:07.661Z,100578.09
2023-02-05T10:31:48.860Z,100580.00
2023-02-05T10:34:40.035Z,100573.94
2023-02-05T10:37:19.627Z,100570.66
2023-02-05T10:39:51.491Z,100559.41
2023-02-05T10:42:33.903Z,100547.38
2023-02-05T10:45:18.131Z,100551.34
2023-02-05T10:48:26.269Z,100544.47
2023-02-05T10:51:04.277Z,100551.69
2023-02-05T10:53:36.694Z,100539.16
2023-02-05T10:56:08.722Z,100527.44
2023-02-05T10:58:53.506Z,100544.72
2023-02-05T11:01:27.127Z,100543.00
2023-02-05T11:04:02.904Z,100533.31
2023-02-05T11:06:42.847Z,100538.50
2023-02-05T11:09:34.631Z,100538.44
2023-02-05T11:12:09.866Z,100540.00
2023-02-05T11:14:47.093Z,100529.94
2023-02-05T11:17:27.451Z,100541.91
2023-02-05T11:20:01.237Z,100538.19
2023-02-05T11:22:35.584Z,100528.50
2023-02-05T11:25:18.501Z,100526.00
2023-02-05T11:27:55.603Z,100524.63
2023-02-05T11:30:51.542Z,100525.75
2023-02-05T11:33:34.017Z,100526.41
2023-02-05T11:36:08.472Z,100517.56
2023-02-05T11:38:48.054Z,100523.53
2023-02-05T11:41:31.401Z,100517.03
2023-02-05T11:44:05.877Z,100514.50
2023-02-05T11:46:47.988Z,100519.25
2023-02-05T11:49:26.518Z,100521.16
2023-02-05T11:52:02.394Z,100507.41
2023-02-05T11:54:37.599Z,100511.31
2023-02-05T11:57:27.476Z,100500.44
2023-02-05T12:00:00.250Z,100503.97
2023-02-05T12:02:42.010Z,100504.81
2023-02-05T12:05:31.570Z,100503.56
2023-02-05T12:08:10.100Z,100491.50
2023-02-05T12:10:50.196Z,100490.31
2023-02-05T12:13:45.583Z,100486.25
2023-02-05T12:16:55.750Z,100479.34
2023-02-05T12:19:36.673Z,100474.06
2023-02-05T12:22:19.897Z,100473.28
2023-02-05T12:25:11.674Z,100478.06
2023-02-05T12:28:10.890Z,100479.25
2023-02-05T12:31:03.994Z,100483.59
2023-02-05T12:34:16.330Z,100480.34
2023-02-05T12:37:16.901Z,100479.09
2023-02-05T12:39:55.598Z,100473.03
2023-02-05T12:42:37.099Z,100466.22
2023-02-05T12:45:38.551Z,100459.75
2023-02-05T12:48:35.716Z,100460.53
2023-02-05T12:51:27.739Z,100460.91
2023-02-05T12:54:21.897Z,100457.28
2023-02-05T12:57:06.414Z,100448.44
2023-02-05T12:59:44.747Z,100451.66
2023-02-05T13:02:27.434Z,100449.22
2023-02-05T13:05:15.702Z,100440.34
2023-02-05T13:07:51.872Z,100442.34
2023-02-05T13:11:12.690Z,100456.31
2023-02-05T13:13:54.723Z,100450.25
2023-02-05T13:16:38.223Z,100447.00
2023-02-05T13:19:29.968Z,100444.19
2023-02-05T13:22:23.675Z,100451.34
2023-02-05T13:25:21.032Z,100454.09
2023-02-05T13:28:20.587Z,100448.81
2023-02-05T13:30:58.442Z,100447.94
2023-02-05T13:33:30.021Z,100449.13
2023-02-05T13:36:32.764Z,100446.66
2023-02-05T13:39:34.553Z,100447.03
2023-02-05T13:42:32.195Z,100450.56
2023-02-05T13:45:59.215Z,100444.06
2023-02-05T13:49:34.071Z,100445.97
2023-02-05T13:52:37.793Z,100441.09
2023-02-05T13:55:43.684Z,100455.13
2023-02-05T13:58:24.773Z,100443.91
2023-02-05T14:01:10.004Z,100433.03
2023-02-05T14:03:56.316Z,100429.41
2023-02-05T14:06:34.675Z,100428.59
2023-02-05T14:09:12.996Z,100437.00
2023-02-05T14:11:56.080Z,100436.56
2023-02-05T14:14:35.448Z,100439.75
2023-02-05T14:17:45.005Z,100454.13
2023-02-05T14:20:40.965Z,100448.75
2023-02-05T14:23:58.384Z,100453.13
2023-02-05T14:30:53.794Z,100452.13
2023-02-05T14:33:48.183Z,100446.06
2023-02-05T14:36:39.732Z,100452.88
2023-02-05T14:39:27.310Z,100441.97
2023-02-05T14:42:29.665Z,100431.94
2023-02-05T14:45:03.529Z,100430.31
2023-02-05T14:47:37.914Z,100434.75
2023-02-05T14:50:12.477Z,100444.34
2023-02-05T14:52:54.443Z,100447.97
2023-02-05T14:55:35.514Z,100452.75
2023-02-05T14:58:12.168Z,100452.31
2023-02-05T15:00:48.170Z,100454.28
2023-02-05T15:03:33.103Z,100458.66
2023-02-05T15:06:10.864Z,100462.63
2023-02-05T15:08:57.940Z,100467.44
2023-02-05T15:11:48.052Z,100468.59
2023-02-05T15:14:44.972Z,100462.16
2023-02-05T15:21:27.895Z,100468.78
2023-02-05T15:24:15.432Z,100462.38
2023-02-05T15:26:54.795Z,100466.34
2023-02-05T15:29:32.277Z,100469.94
2023-02-05T15:32:07.661Z,100464.72
2023-02-05T15:35:28.944Z,100456.63
2023-02-05T15:38:05.320Z,100463.00
2023-02-05T15:40:44.261Z,100458.56
2023-02-05T15:43:26.310Z,100455.75
2023-02-05T15:46:04.340Z,100442.91
2023-02-05T15:48:38.198Z,100451.31
2023-02-05T15:51:25.563Z,100444.06
2023-02-05T15:54:01.020Z,100445.72
2023-02-05T15:56:40.307Z,100452.50
2023-02-05T15:59:21.490Z,100453.66
2023-02-05T16:02:01.745Z,100440.81
2023-02-05T16:04:35.969Z,100437.22
2023-02-05T16:07:21.397Z,100434.41
2023-02-05T16:09:57.259Z,100433.56
2023-02-05T16:12:30.846Z,100420.72
2023-02-05T16:15:04.676Z,100421.56
2023-02-05T16:17:44.721Z,100421.56
2023-02-05T16:20:31.851Z,100418.75
2023-02-05T16:23:09.755Z,100412.31
2023-02-05T16:25:52.632Z,100415.50
2023-02-05T16:28:36.940Z,100421.09
2023-02-05T16:31:12.737Z,100425.06
2023-02-05T16:33:58.181Z,100427.06
2023-02-05T16:36:39.393Z,100421.81
2023-02-05T16:39:25.138Z,100429.41
2023-02-05T16:42:09.850Z,100430.59
2023-02-05T16:44:52.274Z,100439.00
2023-02-05T16:47:23.823Z,100429.78
2023-02-05T16:49:55.281Z,100434.56
2023-02-05T16:52:35.060Z,100433.78
2023-02-05T16:55:31.911Z,100439.72
2023-02-05T16:58:08.956Z,100437.66
2023-02-05T17:00:41.768Z,100435.19
2023-02-05T17:03:24.765Z,100433.94
2023-02-05T17:06:02.938Z,100439.91
2023-02-05T17:08:39.734Z,100438.66
2023-02-05T17:11:35.691Z,100442.94
2023-02-05T17:14:30.011Z,100443.66
2023-02-05T17:17:21.052Z,100438.78
2023-02-05T17:20:09.999Z,100438.69
2023-02-05T17:22:40.231Z,100447.00
2023-02-05T17:25:12.756Z,100451.75
2023-02-05T17:27:43.719Z,100456.91
2023-02-05T17:30:23.691Z,100454.94
2023-02-05T17:32:55.879Z,100457.28
2023-02-05T17:35:27.222Z,100456.47
2023-02-05T17:37:58.068Z,100458.44
2023-02-05T17:40:28.803Z,100454.84
2023-02-05T17:43:00.413Z,100454.84
2023-02-05T17:45:35.946Z,100461.63
2023-02-05T17:48:09.457Z,100459.16
2023-02-05T17:50:41.607Z,100443.88
2023-02-05T17:53:14.700Z,100441.78
2023-02-05T17:55:44.567Z,100443.78
2023-02-05T17:58:15.666Z,100439.72
2023-02-05T18:00:45.709Z,100430.03
2023-02-05T18:03:18.020Z,100441.59
2023-02-05T18:05:48.986Z,100441.13
2023-02-05T18:08:19.812Z,100433.09
2023-02-05T18:10:51.334Z,100428.19
2023-02-05T18:13:28.428Z,100422.16
2023-02-05T18:16:04.480Z,100424.13
2023-02-05T18:18:39.677Z,100423.31
2023-02-05T18:21:11.166Z,100422.03
2023-02-05T18:23:41.875Z,100417.63
2023-02-05T18:26:12.598Z,100412.38
2023-02-05T18:28:43.022Z,100416.69
2023-02-05T18:31:15.762Z,100409.47
2023-02-05T18:33:51.988Z,100411.00
2023-02-05T18:36:24.535Z,100416.94
2023-02-05T18:38:55.408Z,100413.69
2023-02-05T18:41:26.479Z,100419.66
2023-02-05T18:43:57.864Z,100418.84
2023-02-05T18:46:33.498Z,100413.94
2023-02-05T18:49:07.018Z,100406.38
2023-02-05T18:51:37.974Z,100423.19
2023-02-05T18:54:09.536Z,100413.94
2023-02-05T18:56:44.302Z,100417.09
2023-02-05T18:59:21.558Z,100416.75
2023-02-05T19:01:52.044Z,100410.34
2023-02-05T19:04:25.413Z,100413.47
2023-02-05T19:06:57.190Z,100421.06
2023-02-05T19:09:29.959Z,100416.66
2023-02-05T19:12:00.746Z,100413.38
2023-02-05T19:14:32.337Z,100408.94
2023-02-05T19:17:04.399Z,100400.41
2023-02-05T19:19:37.962Z,100411.97
2023-02-05T19:22:08.859Z,100402.66
2023-02-05T19:24:41.567Z,100389.81
2023-02-05T19:27:12.418Z,100401.38
2023-02-05T19:29:43.795Z,100399.75
2023-02-05T19:32:14.446Z,100401.28
2023-02-05T19:34:47.055Z,100407.69
2023-02-05T19:37:18.409Z,100405.25
2023-02-05T19:39:49.802Z,100402.81
2023-02-05T19:42:21.400Z,100399.56
2023-02-05T19:44:52.250Z,100400.34
2023-02-05T19:47:22.318Z,100404.31
2023-02-05T19:49:54.581Z,100401.50
2023-02-05T19:52:25.608Z,100397.91
2023-02-05T19:54:56.099Z,100395.13
2023-02-05T19:57:26.954Z,100391.84
2023-02-05T19:59:58.375Z,100387.09
2023-02-05T20:02:29.798Z,100386.25
2023-02-05T20:05:03.337Z,100376.22
2023-02-05T20:07:38.619Z,100388.25
2023-02-05T20:10:10.969Z,100378.56
2023-02-05T20:12:41.979Z,100388.13
2023-02-05T20:15:14.092Z,100389.31
2023-02-05T20:17:45.384Z,100387.69
2023-02-05T20:20:32.691Z,100374.03
2023-02-05T20:23:04.701Z,100369.50
2023-02-05T20:25:35.472Z,100375.47
2023-02-05T20:28:05.950Z,100379.78
2023-02-05T20:30:53.706Z,100382.13
2023-02-05T20:33:23.750Z,100375.25
2023-02-05T20:35:56.418Z,100368.81
2023-02-05T20:38:27.504Z,100369.56
2023-02-05T20:41:00.023Z,100367.91
2023-02-05T20:43:30.733Z,100371.88
2023-02-05T20:46:07.297Z,100376.66
2023-02-05T20:48:38.345Z,100373.84
2023-02-05T20:51:14.833Z,100378.63
2023-02-05T20:53:46.459Z,100377.81
2023-02-05T20:56:21.388Z,100374.22
2023-02-05T20:58:52.062Z,100377.38
2023-02-05T21:01:25.324Z,100364.56
2023-02-05T21:03:58.327Z,100367.34
2023-02-05T21:06:33.920Z,100350.91
2023-02-05T21:09:05.180Z,100351.25
2023-02-05T21:11:36.619Z,100350.47
2023-02-05T21:14:07.893Z,100360.00
2023-02-05T21:16:40.842Z,100353.94
2023-02-05T21:19:12.706Z,100356.75
2023-02-05T21:21:44.563Z,100353.94
2023-02-05T21:24:17.943Z,100347.53
2023-02-05T21:26:50.730Z,100342.28
2023-02-05T21:29:26.159Z,100343.47
2023-02-05T21:31:58.089Z,100343.09
2023-02-05T21:34:31.273Z,100347.88
2023-02-05T21:37:03.490Z,100351.50
2023-02-05T21:39:34.269Z,100352.31
2023-02-05T21:42:05.158Z,100338.69
2023-02-05T21:44:35.280Z,100341.50
2023-02-05T21:47:05.587Z,100335.91
2023-02-05T21:49:36.447Z,100329.47
2023-02-05T21:52:09.348Z,100322.72
2023-02-05T21:54:40.040Z,100322.72
2023-02-05T21:57:14.658Z,100315.13
2023-02-05T21:59:48.621Z,100323.19
2023-02-05T22:02:19.858Z,100322.72
2023-02-05T22:04:50.586Z,100315.84
2023-02-05T22:07:22.915Z,100310.25
2023-02-05T22:09:55.185Z,100304.56
2023-02-05T22:12:25.660Z,100303.75
2023-02-05T22:14:56.898Z,100313.28
2023-02-05T22:17:26.997Z,100314.47
2023-02-05T22:19:58.070Z,100310.06
2023-02-05T22:22:31.458Z,100310.06
2023-02-05T22:25:02.330Z,100312.38
2023-02-05T22:27:32.886Z,100310.38
2023-02-05T22:30:04.068Z,100307.97
2023-02-05T22:32:34.778Z,100307.13
2023-02-05T22:35:05.250Z,100303.53
2023-02-05T22:37:37.680Z,100308.28
2023-02-05T22:40:10.096Z,100292.34
2023-02-05T22:42:40.737Z,100297.94
2023-02-05T22:45:12.572Z,100295.50
2023-02-05T22:47:42.661Z,100291.88
2023-02-05T22:50:13.692Z,100285.81
2023-02-05T22:52:46.185Z,100297.84
2023-02-05T22:55:17.084Z,100291.75
2023-02-05T22:57:48.232Z,100294.91
2023-02-05T23:00:19.962Z,100296.06
2023-02-05T23:02:51.292Z,100299.19
2023-02-05T23:05:21.319Z,100300.81
2023-02-05T23:07:55.636Z,100300.81
2023-02-05T23:10:27.513Z,100300.81
2023-02-05T23:13:00.215Z,100295.22
2023-02-05T23:15:30.133Z,100300.03
2023-02-05T23:18:01.631Z,100299.19
2023-02-05T23:20:32.541Z,100292.81
2023-02-05T23:23:04.838Z,100295.59
2023-02-05T23:25:40.032Z,100289.19
2023-02-05T23:28:09.967Z,100288.38
2023-02-05T23:30:41.250Z,100278.34
2023-02-05T23:33:11.648Z,100284.78
2023-02-05T23:35:43.151Z,100280.34
2023-02-05T23:38:15.894Z,100281.97
2023-02-05T23:40:46.621Z,100282.31
2023-02-05T23:43:17.899Z,100281.50
2023-02-05T23:45:49.231Z,100275.09
2023-02-05T23:48:20.787Z,100277.09
2023-02-05T23:51:07.635Z,100278.63
2023-02-05T23:53:40.979Z,100276.16
2023-02-05T23:56:12.370Z,100276.50
2023-02-05T23:58:43.088Z,100280.47
